メインページ
METAR-TAF:

METAR-TAF

空港 :

チュニス・カルタゴ国際空港

チュニス, チュニジア

緯度: 36-50N, 経度: 010-14E, 海抜: 3m

現時点の気象観測

当レポートは39分前の05:00(UTC)に作成
の風 6kt
気温 18°C
湿度 88%
気圧 1014 hPa
視程: 8000m
高度2600ftの雲はほとんどない

METAR: DTTA 220500Z 19006KT 8000 FEW026 18/16 Q1014

時間: 06:39 (05:39 UTC)

予報

当レポートは24分前の05:15(UTC)に作成
予報は22日の 06時(UTC)から 23日の 06時(UTC)まで有効
西の風 10kt
視程10km以上
高度2600ftの雲はほとんどない
22日の 06時(UTC)から 22日の 12時(UTC)まで一時的に
北西の風 15kt、最大27ktの突風を伴う
視程: 4000m
高度3000ftの雲はほとんどない, 積乱雲.
激しい雷雨, にわか雨
22日の 10時(UTC)から 22日の 12時(UTC)まで徐々に
の風 10kt
確率 40% :
22日の 16時(UTC)から 22日の 20時(UTC)まで一時的に
の風 12kt、最大22ktの突風を伴う
高度2300ftの雲はほとんどない, 積乱雲.
激しい雷雨, 雨
22日の 19時(UTC)から 22日の 21時(UTC)まで徐々に
西の風 10kt
22日の 22時(UTC)から 22日の 24時(UTC)まで徐々に
北西の風 17kt、最大40ktの突風を伴う
23日の 02時(UTC)から 23日の 06時(UTC)まで一時的に
高度2300ftの雲はほとんどない, 積乱雲.
激しい雷雨, 雨

TAF: DTTA 220515Z 2206/2306 27010KT 9999 FEW026 TEMPO 2206/2212 32015G27KT 4000 TS SHRA FEW030CB BECMG 2210/2212 36010KT PROB40 TEMPO 2216/2220 01012G22KT TSRA FEW023CB BECMG 2219/2221 27010KT BECMG 2222/2224 31017G40KT TEMPO 2302/2306 TSRA FEW023CB

4,000以上の空港の気象観測と天気予報(METAR報とTAF報)

利用可能な観測所は地図上に黄色い丸と赤い丸で示す。

丸の上にカーソルを重ねると観測所名を参照できる。

次にクリックすると気象観測と天気予報を参照できる。

マップの切り替え:黒色「×」印の緑ボタンをクリックして拡大、「-」印の緑ボタンをクリックして縮小、緑色の三角印をクリックして隣りの地図に切り替え


METAR-TAF: